Skip Navigation Links
NOAA logo - Click to go to the NOAA homepage
NOAA's National Weather Service
Alaska Aviation Weather Unit
  NWS logo - Click to go to the NWS homepage
Left Navbar Graphic     09 AKDT = 17 GMT

   
NOAA is celebrating 200 years of science, service, and stewardship. Visit the NOAA 200th celebration Web site to learn more.
USA.gov is the U.S. Government's official Web portal to all Federal, state and local government Web resources and services.
Facebook
NWS on Facebook

Important Change Regarding the AAWU Web Presence

 

Over the last several months, the AAWU has been working to navigate its webpages to a nationally supported server. Security, as well as other needs, have necessitated the change.  In the process, we have made an effort to enhance the functionality of our website, as well as some of our products. As of June 20, 2017, aawu.arh.noaa.gov will be discontinued. The new AAWU web address is weather.gov/aawu. It is now live and will run in-parallel with the old site until it is discontinued. Please send any feedback or questions regarding the new webpages to nws.ar.aawu.webauthors@noaa.gov.  Thank you for your patience during this time of transition.
AAWU Home :: Display TAF Add Bookmark
TAF PADL 271154Z 2712/2812 12008KT P6SM -RA SCT008 BKN015 OVC025
      TEMPO 2712/2714 P6SM -RA BKN008 OVC015
     FM271400 07008KT 6SM -RA BR SCT007 BKN015 OVC025
     FM271800 11010KT 5SM -RA BR SCT007 OVC015
     FM280000 12008KT P6SM -SHRA BKN015 BKN035
     FM280500 VRB05KT P6SM VCSH SCT035 BKN050=
SPECI PADL 271137Z AUTO 12008KT 9SM -RA BKN010 OVC020 04/04 A2994 RMK
     AO2 P0001=

PADL 271147Z AUTO 13006KT 10SM -RA OVC008 04/04 A2994=

METAR PADL 271156Z AUTO 12008KT 10SM -RA OVC008 04/04 A2994=

METAR PADL 271256Z AUTO 12007KT 10SM -RA BKN006 OVC033 04/04 A2993=

PADL 271309Z AUTO 12009KT 10SM -RA SCT006 BKN031 OVC055 04/04
     A2993 RMK AO2 P0000=

SPECI PADL 271331Z AUTO 13009KT 10SM -RA FEW006 BKN022 OVC055 04/04
     A2994 RMK AO2 P0000=

METAR PADL 271356Z AUTO 12008KT 10SM -RA OVC020 04/04 A2993=

METAR PADL 271456Z AUTO 12010KT 10SM -RA FEW008 OVC024 04/04 A2993=

METAR PADL 271556Z 09008KT 10SM FEW015 OVC035 05/03 A2994=

METAR PADL 271656Z 13010KT 10SM -RA FEW015 OVC035 06/03 A2993=


NOAA's National Weather Service
Alaska Aviation Weather Unit
6930 Sand Lake Road
Anchorage, AK 99502-1845
Disclaimer
Credits
Glossary
Privacy Policy
About Us
Career Opportunities
Contact AAWU Internet Services Site last modified: April, 17th 2012